Time;durP1;ratioP1;P1;durP2;ratioP2;P2;SDS_P1;SDS_P2;PMS_P1;PMS_P2;Temp;Humidity;BMP_temperature;BMP_pressure;BME280_temperature;BME280_humidity;BME280_pressure;Samples;Min_cycle;Max_cycle;Signal;HPM_P1;HPM_P2
2023/04/16 00:00:24;;;;;;;40.00;2.47;;;;;;;22.58;56.33;99168.75;7317323;19;129565;-42
2023/04/16 00:02:50;;;;;;;38.80;2.63;;;;;;;22.61;56.52;99180.75;7316807;19;130225;-40
2023/04/16 00:05:15;;;;;;;32.95;2.15;;;;;;;22.59;57.53;99180.06;7316965;19;129625;-42
2023/04/16 00:07:41;;;;;;;36.75;2.45;;;;;;;22.56;56.82;99180.38;7312186;19;130350;-40
2023/04/16 00:10:06;;;;;;;37.97;2.42;;;;;;;22.56;56.25;99189.06;7316614;19;130298;-39
2023/04/16 00:12:32;;;;;;;82.60;4.72;;;;;;;22.57;57.29;99176.78;7316300;19;129326;-39
2023/04/16 00:14:58;;;;;;;64.50;4.20;;;;;;;22.47;57.36;99173.41;7314976;19;129369;-39
2023/04/16 00:17:23;;;;;;;43.65;2.75;;;;;;;22.53;57.50;99184.13;7312658;19;130122;-39
2023/04/16 00:19:49;;;;;;;45.53;2.80;;;;;;;22.55;56.05;99186.59;7315286;19;129767;-39
2023/04/16 00:22:14;;;;;;;41.53;2.83;;;;;;;22.53;57.09;99194.59;7316178;19;129435;-39
2023/04/16 00:24:39;;;;;;;50.27;3.27;;;;;;;22.54;56.79;99190.19;7315443;19;131022;-39
2023/04/16 00:27:05;;;;;;;70.97;4.30;;;;;;;22.55;57.78;99194.44;7308717;19;129149;-39
2023/04/16 00:29:31;;;;;;;54.95;3.17;;;;;;;22.57;57.46;99195.94;7314402;19;129118;-39
2023/04/16 00:31:56;;;;;;;28.23;1.92;;;;;;;22.59;57.41;99193.19;7316344;19;130102;-39
2023/04/16 00:34:21;;;;;;;37.90;2.50;;;;;;;22.56;57.13;99188.25;7312852;19;129309;-39
2023/04/16 00:36:47;;;;;;;39.63;2.50;;;;;;;22.55;57.69;99202.31;7311541;19;129187;-39
2023/04/16 00:39:12;;;;;;;86.82;4.78;;;;;;;22.50;57.84;99196.69;7313974;19;129749;-39
2023/04/16 00:41:37;;;;;;;29.90;1.87;;;;;;;22.48;56.75;99201.25;7314335;19;129633;-39
2023/04/16 00:44:03;;;;;;;47.08;2.92;;;;;;;22.38;57.78;99184.84;7311832;19;129783;-39
2023/04/16 00:46:28;;;;;;;57.90;3.28;;;;;;;22.45;57.39;99201.56;7312806;19;129392;-39
2023/04/16 00:48:54;;;;;;;52.63;3.20;;;;;;;22.42;57.17;99202.69;7309110;19;129264;-39
2023/04/16 00:51:20;;;;;;;106.57;5.87;;;;;;;22.36;56.73;99203.28;7314728;19;130335;-39
2023/04/16 00:53:46;;;;;;;60.53;3.77;;;;;;;22.30;58.18;99200.47;7313172;19;130415;-39
2023/04/16 00:56:12;;;;;;;23.90;1.80;;;;;;;22.33;57.68;99208.06;7312798;19;129270;-39
2023/04/16 00:58:38;;;;;;;49.00;3.07;;;;;;;22.30;58.64;99205.72;7312496;19;129496;-39
2023/04/16 01:01:03;;;;;;;34.57;2.37;;;;;;;22.26;57.40;99204.41;7313832;19;129561;-39
2023/04/16 01:03:43;;;;;;;58.40;3.55;;;;;;;22.25;57.99;99206.19;7312977;19;130466;-39
2023/04/16 01:06:08;;;;;;;33.38;2.47;;;;;;;22.23;58.51;99202.88;7312948;19;129633;-39
2023/04/16 01:08:34;;;;;;;55.35;3.45;;;;;;;22.15;57.78;99186.31;7312990;19;129055;-38
2023/04/16 01:11:00;;;;;;;54.17;3.37;;;;;;;22.24;57.18;99201.09;7313403;19;130035;-38
2023/04/16 01:13:25;;;;;;;63.87;4.17;;;;;;;22.13;57.54;99191.69;7310379;19;130401;-38
2023/04/16 01:15:51;;;;;;;64.80;4.35;;;;;;;22.20;57.49;99205.81;7309246;19;130342;-38
2023/04/16 01:18:18;;;;;;;93.27;5.27;;;;;;;22.21;58.54;99201.41;7311211;19;128976;-38
2023/04/16 01:20:45;;;;;;;40.75;2.55;;;;;;;22.25;57.50;99210.59;7312522;19;130213;-38
2023/04/16 01:23:10;;;;;;;60.15;3.90;;;;;;;22.22;57.68;99203.03;7312177;19;130030;-38
2023/04/16 01:25:36;;;;;;;34.20;2.15;;;;;;;22.20;57.44;99207.59;7313605;19;129595;-38
2023/04/16 01:28:02;;;;;;;46.17;3.07;;;;;;;22.18;57.81;99214.81;7311103;19;129256;-39
2023/04/16 01:30:27;;;;;;;26.70;2.03;;;;;;;22.21;57.81;99211.88;7313787;19;129321;-38
2023/04/16 01:32:52;;;;;;;57.40;3.87;;;;;;;22.22;58.52;99210.91;7310667;19;129127;-38
2023/04/16 01:35:18;;;;;;;76.80;5.03;;;;;;;22.24;57.98;99209.78;7310520;19;129159;-38
2023/04/16 01:37:43;;;;;;;41.30;2.70;;;;;;;22.21;57.38;99210.09;7312357;19;129396;-37
2023/04/16 01:40:09;;;;;;;60.05;4.00;;;;;;;22.21;57.49;99210.09;7312168;19;130399;-38
2023/04/16 01:42:35;;;;;;;35.27;2.27;;;;;;;22.18;57.62;99209.56;7311693;19;130234;-38
2023/04/16 01:45:00;;;;;;;74.93;4.63;;;;;;;22.19;57.58;99211.22;7309754;19;129310;-38
2023/04/16 01:47:26;;;;;;;42.65;2.85;;;;;;;22.20;57.29;99218.06;7311225;19;130315;-38
2023/04/16 01:49:51;;;;;;;55.92;3.53;;;;;;;22.09;58.44;99200.00;7313463;19;129380;-38
2023/04/16 01:52:16;;;;;;;24.95;1.77;;;;;;;22.23;58.04;99215.19;7311895;19;129177;-39
2023/04/16 01:54:42;;;;;;;51.72;3.03;;;;;;;22.22;58.35;99218.75;7311709;19;129285;-38
2023/04/16 01:57:08;;;;;;;13.65;1.13;;;;;;;22.26;58.42;99223.56;7312927;19;129112;-38
2023/04/16 01:59:33;;;;;;;40.15;2.80;;;;;;;22.18;58.57;99212.19;7314273;19;130746;-38
2023/04/16 02:02:06;;;;;;;25.20;1.80;;;;;;;22.26;58.19;99218.31;7312202;19;129174;-39
2023/04/16 02:04:31;;;;;;;67.97;4.10;;;;;;;22.26;57.60;99214.88;7312916;19;129043;-38
2023/04/16 02:06:56;;;;;;;36.13;2.30;;;;;;;22.20;57.50;99197.13;7312233;19;130002;-38
2023/04/16 02:09:22;;;;;;;26.25;1.90;;;;;;;22.31;58.25;99218.69;7309835;19;130144;-38
2023/04/16 02:11:47;;;;;;;32.80;2.25;;;;;;;22.28;58.25;99218.97;7311810;19;130267;-38
2023/04/16 02:14:12;;;;;;;58.27;3.63;;;;;;;22.27;58.02;99213.88;7311369;19;128931;-38
2023/04/16 02:16:38;;;;;;;24.08;1.70;;;;;;;22.27;58.48;99219.94;7312021;19;130364;-39
2023/04/16 02:19:03;;;;;;;60.65;3.65;;;;;;;22.25;57.86;99218.44;7309840;19;130279;-39
2023/04/16 02:21:28;;;;;;;29.70;2.23;;;;;;;22.20;57.78;99210.22;7310755;19;129072;-38
2023/04/16 02:23:54;;;;;;;47.15;3.08;;;;;;;22.33;57.80;99229.00;7311885;19;129197;-39
2023/04/16 02:26:20;;;;;;;26.90;1.90;;;;;;;22.31;57.83;99228.31;7312091;19;128856;-39
2023/04/16 02:28:45;;;;;;;23.40;1.85;;;;;;;22.33;57.55;99229.00;7310298;19;130217;-42
2023/04/16 02:31:10;;;;;;;30.75;2.10;;;;;;;22.35;58.18;99227.03;7310956;19;130855;-39
2023/04/16 02:33:36;;;;;;;44.90;2.72;;;;;;;22.35;57.13;99238.34;7313094;19;129373;-38
2023/04/16 02:36:01;;;;;;;31.87;2.07;;;;;;;22.33;57.51;99229.81;7312158;19;130358;-39
2023/04/16 02:38:26;;;;;;;25.23;1.80;;;;;;;22.40;57.44;99235.25;7312209;19;130260;-39
2023/04/16 02:40:52;;;;;;;22.80;1.67;;;;;;;22.36;57.48;99234.72;7309102;19;130348;-39
2023/04/16 02:43:17;;;;;;;38.33;2.65;;;;;;;22.28;58.05;99226.81;7312916;19;130953;-39
2023/04/16 02:45:43;;;;;;;36.28;2.22;;;;;;;22.40;57.14;99245.72;7311346;19;129075;-39
2023/04/16 02:48:08;;;;;;;40.97;2.67;;;;;;;22.43;57.57;99250.69;7309968;19;130222;-39
2023/04/16 02:50:34;;;;;;;47.42;2.88;;;;;;;22.46;57.05;99245.13;7312059;19;130281;-39
2023/04/16 02:52:59;;;;;;;29.53;1.97;;;;;;;22.46;57.65;99245.13;7312340;19;129106;-39
2023/04/16 02:55:25;;;;;;;53.83;3.67;;;;;;;22.44;57.41;99247.06;7309549;19;129586;-39
2023/04/16 02:57:51;;;;;;;42.72;2.55;;;;;;;22.43;57.22;99248.06;7310798;19;130385;-40
2023/04/16 03:00:17;;;;;;;70.05;5.05;;;;;;;22.43;57.43;99250.69;7311863;19;130448;-38
2023/04/16 03:02:42;;;;;;;53.67;3.40;;;;;;;22.42;57.38;99254.25;7313515;19;129682;-39
2023/04/16 03:05:08;;;;;;;32.53;2.30;;;;;;;22.47;57.12;99254.63;7312004;19;129792;-38
2023/04/16 03:07:34;;;;;;;39.30;2.70;;;;;;;22.45;57.62;99253.94;7307582;19;129619;-39
2023/04/16 03:09:59;;;;;;;42.67;2.65;;;;;;;22.45;57.03;99252.16;7311225;19;130545;-39
2023/04/16 03:12:25;;;;;;;24.45;2.00;;;;;;;22.44;58.00;99257.56;7310847;19;128818;-38
2023/04/16 03:14:53;;;;;;;73.40;4.37;;;;;;;22.42;57.93;99256.88;7310425;19;129438;-39
2023/04/16 03:17:18;;;;;;;47.17;2.90;;;;;;;22.44;57.32;99260.19;7307118;19;130146;-39
2023/04/16 03:19:44;;;;;;;44.22;2.90;;;;;;;22.44;57.50;99260.19;7310396;19;129373;-39
2023/04/16 03:22:09;;;;;;;43.45;2.65;;;;;;;22.36;57.80;99249.66;7307939;19;130598;-39
2023/04/16 03:24:35;;;;;;;27.67;1.90;;;;;;;22.42;57.09;99275.22;7308517;19;129862;-39
2023/04/16 03:27:01;;;;;;;46.20;2.70;;;;;;;22.42;57.11;99275.22;7308420;19;129844;-39
2023/04/16 03:29:26;;;;;;;42.63;2.70;;;;;;;22.40;57.27;99278.00;7308955;19;130349;-39
2023/04/16 03:31:52;;;;;;;49.53;3.30;;;;;;;22.42;57.23;99281.28;7309981;19;130729;-40
2023/04/16 03:34:17;;;;;;;26.77;1.93;;;;;;;22.38;57.45;99276.50;7309239;19;129409;-42
2023/04/16 03:36:42;;;;;;;61.45;3.65;;;;;;;22.35;57.47;99264.53;7307896;19;129400;-39
2023/04/16 03:39:07;;;;;;;22.50;1.70;;;;;;;22.23;57.16;99286.69;7306457;19;129635;-39
2023/04/16 03:41:33;;;;;;;32.22;2.17;;;;;;;21.87;57.05;99285.88;7309401;19;128996;-39
2023/04/16 03:43:58;;;;;;;34.28;2.40;;;;;;;21.70;57.17;99294.50;7308256;19;129778;-38
2023/04/16 03:46:23;;;;;;;53.10;3.33;;;;;;;21.72;57.11;99287.31;7307778;19;129485;-39
2023/04/16 03:48:49;;;;;;;37.45;2.58;;;;;;;21.83;56.82;99289.75;7308140;19;129468;-39
2023/04/16 03:51:15;;;;;;;53.97;3.43;;;;;;;21.87;56.69;99275.41;7307781;19;129180;-39
2023/04/16 03:53:40;;;;;;;49.58;3.03;;;;;;;22.06;56.25;99294.56;7307634;19;129791;-38
2023/04/16 03:56:05;;;;;;;43.22;2.80;;;;;;;22.14;56.05;99307.72;7308108;19;129085;-39
2023/04/16 03:58:31;;;;;;;33.38;2.30;;;;;;;22.24;56.19;99300.59;7306094;19;129224;-39
2023/04/16 04:00:56;;;;;;;45.03;2.92;;;;;;;22.29;56.27;99303.59;7307218;19;130139;-39
2023/04/16 04:03:21;;;;;;;29.17;2.30;;;;;;;22.35;55.93;99302.97;7309776;19;129749;-39
2023/04/16 04:05:47;;;;;;;37.10;2.45;;;;;;;22.37;55.48;99309.72;7308800;19;130995;-39
2023/04/16 04:08:12;;;;;;;29.15;2.00;;;;;;;22.40;56.16;99313.81;7307374;19;129679;-39
2023/04/16 04:10:37;;;;;;;25.58;1.70;;;;;;;22.38;56.05;99315.81;7315300;19;129748;-39
2023/04/16 04:13:05;;;;;;;45.13;2.95;;;;;;;22.34;55.63;99319.69;7315969;19;129321;-39
2023/04/16 04:15:30;;;;;;;70.25;4.35;;;;;;;22.39;55.95;99318.25;7314723;19;130675;-39
2023/04/16 04:17:56;;;;;;;33.60;2.67;;;;;;;22.36;55.86;99308.06;7312297;19;129787;-39
2023/04/16 04:20:22;;;;;;;23.53;1.67;;;;;;;22.45;55.89;99322.06;7316944;19;129460;-39
2023/04/16 04:22:49;;;;;;;51.63;3.03;;;;;;;22.52;55.32;99320.47;7315057;19;129020;-39
2023/04/16 04:25:15;;;;;;;45.83;3.20;;;;;;;22.52;55.17;99323.09;7315834;19;129049;-39
2023/04/16 04:27:41;;;;;;;31.63;2.00;;;;;;;22.61;55.33;99319.63;7311859;19;129217;-39
2023/04/16 04:30:07;;;;;;;29.87;2.37;;;;;;;22.68;55.29;99320.63;7313192;19;129064;-39
2023/04/16 04:32:32;;;;;;;48.10;3.00;;;;;;;22.77;55.25;99322.34;7314849;19;129722;-39
2023/04/16 04:34:59;;;;;;;51.77;3.20;;;;;;;22.74;55.26;99323.44;7315903;19;128971;-39
2023/04/16 04:37:25;;;;;;;36.25;2.45;;;;;;;22.75;54.68;99329.53;7313618;19;130424;-39
2023/04/16 04:39:50;;;;;;;36.00;2.33;;;;;;;22.73;54.62;99328.84;7315675;19;129310;-39
2023/04/16 04:42:17;;;;;;;57.75;3.35;;;;;;;22.67;54.88;99321.63;7314777;19;129377;-39
2023/04/16 04:44:42;;;;;;;32.47;2.47;;;;;;;22.59;55.29;99318.94;7315573;19;130205;-39
2023/04/16 04:47:08;;;;;;;26.83;1.93;;;;;;;22.50;55.91;99323.25;7313892;19;130185;-39
2023/04/16 04:49:33;;;;;;;32.87;2.37;;;;;;;22.42;55.45;99324.97;7315738;19;130009;-39
2023/04/16 04:51:58;;;;;;;47.65;2.80;;;;;;;22.34;56.12;99333.59;7314805;19;128953;-39
2023/04/16 04:54:24;;;;;;;43.50;2.90;;;;;;;22.26;56.32;99335.34;7313989;19;129093;-39
2023/04/16 04:56:51;;;;;;;49.63;3.03;;;;;;;22.19;56.55;99336.88;7311744;19;129481;-39
2023/04/16 04:59:16;;;;;;;39.92;2.75;;;;;;;22.11;56.31;99339.44;7313530;19;128995;-39
2023/04/16 05:01:42;;;;;;;79.40;4.57;;;;;;;22.01;57.37;99336.06;7312388;19;130385;-41
2023/04/16 05:04:07;;;;;;;27.60;1.87;;;;;;;21.94;57.39;99338.44;7314987;19;129557;-39
2023/04/16 05:06:32;;;;;;;29.38;2.13;;;;;;;21.94;57.89;99341.91;7310814;19;129597;-39
2023/04/16 05:08:58;;;;;;;37.00;2.37;;;;;;;21.90;57.68;99332.69;7311818;19;129847;-39
2023/04/16 05:11:23;;;;;;;49.83;3.10;;;;;;;22.06;57.19;99346.91;7314428;19;129500;-39
2023/04/16 05:13:48;;;;;;;30.48;2.20;;;;;;;22.12;57.13;99348.94;7314461;19;129696;-39
2023/04/16 05:16:14;;;;;;;48.27;2.83;;;;;;;22.22;56.81;99347.06;7312628;19;129861;-41
2023/04/16 05:18:39;;;;;;;46.42;2.97;;;;;;;22.35;56.20;99353.56;7311390;19;131668;-38
2023/04/16 05:21:04;;;;;;;43.30;2.65;;;;;;;22.46;56.35;99361.19;7312683;19;129309;-38
2023/04/16 05:23:30;;;;;;;40.43;2.57;;;;;;;22.46;55.65;99345.47;7314055;19;130246;-37
2023/04/16 05:25:55;;;;;;;54.20;3.30;;;;;;;22.60;55.09;99354.63;7312130;19;131148;-39
2023/04/16 05:28:21;;;;;;;52.27;3.13;;;;;;;22.53;55.79;99366.69;7311990;19;129619;-37
2023/04/16 05:30:46;;;;;;;47.35;2.92;;;;;;;22.52;55.74;99371.09;7314210;19;131499;-39
2023/04/16 05:33:11;;;;;;;49.50;2.97;;;;;;;22.47;56.10;99372.50;7314075;19;130214;-37
2023/04/16 05:35:37;;;;;;;22.33;1.77;;;;;;;22.38;56.47;99374.22;7313436;19;129761;-39
2023/04/16 05:38:03;;;;;;;48.50;2.93;;;;;;;22.29;56.04;99384.78;7310082;19;130770;-38
2023/04/16 05:40:28;;;;;;;33.42;2.20;;;;;;;22.23;56.76;99385.38;7314696;19;129405;-38
2023/04/16 05:42:54;;;;;;;36.83;2.67;;;;;;;22.15;56.56;99387.94;7312201;19;130111;-37
2023/04/16 05:45:19;;;;;;;37.80;3.03;;;;;;;22.09;57.23;99389.34;7310309;19;129771;-39
2023/04/16 05:47:44;;;;;;;78.72;4.70;;;;;;;22.02;57.25;99397.91;7310667;19;129162;-38
2023/04/16 05:50:10;;;;;;;60.63;3.83;;;;;;;21.98;57.67;99402.63;7312810;19;129919;-38
2023/04/16 05:52:35;;;;;;;17.00;1.40;;;;;;;21.98;57.68;99406.06;7312643;19;130288;-39
2023/04/16 05:55:01;;;;;;;54.77;3.30;;;;;;;22.09;57.52;99412.06;7313069;19;129062;-37
2023/04/16 05:57:29;;;;;;;43.90;2.72;;;;;;;22.10;56.88;99409.28;7312599;19;130694;-38
2023/04/16 05:59:54;;;;;;;49.53;3.30;;;;;;;22.21;56.53;99401.25;7314083;19;129189;-38
2023/04/16 06:02:20;;;;;;;37.45;2.45;;;;;;;22.34;56.28;99403.50;7306106;19;131160;-40
2023/04/16 06:04:45;;;;;;;35.53;2.20;;;;;;;22.43;56.05;99410.47;7312960;19;129294;-38
2023/04/16 06:07:10;;;;;;;47.10;3.00;;;;;;;22.55;55.91;99412.75;7311301;19;129316;-38
2023/04/16 06:09:36;;;;;;;28.08;2.03;;;;;;;22.60;55.43;99412.28;7313626;19;130353;-40
2023/04/16 06:12:01;;;;;;;46.58;2.80;;;;;;;22.58;55.08;99401.13;7313230;19;129367;-41
2023/04/16 06:14:26;;;;;;;65.40;4.05;;;;;;;;;;7310890;19;129285;-38
2023/04/16 06:16:52;;;;;;;52.72;3.13;;;;;;;22.60;55.15;99414.91;7312356;19;130333;-39
2023/04/16 06:19:17;;;;;;;31.55;2.22;;;;;;;22.58;55.25;99411.59;7311242;19;130491;-39
2023/04/16 06:21:43;;;;;;;31.33;2.10;;;;;;;22.48;55.65;99421.28;7309728;19;129033;-39
2023/04/16 06:24:08;;;;;;;67.80;3.83;;;;;;;22.40;56.30;99426.47;7310557;19;130438;-39
2023/04/16 06:26:33;;;;;;;35.77;2.20;;;;;;;22.33;56.18;99422.81;7311755;19;129196;-39
2023/04/16 06:28:59;;;;;;;47.15;3.13;;;;;;;22.23;57.12;99427.28;7308088;19;130101;-39
2023/04/16 06:31:25;;;;;;;38.50;2.50;;;;;;;22.15;57.10;99428.00;7309615;19;130237;-39
2023/04/16 06:33:50;;;;;;;42.83;2.58;;;;;;;22.10;57.10;99435.47;7310659;19;129213;-42
2023/04/16 06:36:16;;;;;;;60.90;3.90;;;;;;;22.05;57.52;99434.28;7306389;19;129943;-42
2023/04/16 06:38:41;;;;;;;28.80;1.95;;;;;;;21.98;57.38;99434.84;7307741;19;129086;-39
2023/04/16 06:41:07;;;;;;;83.60;5.03;;;;;;;21.84;57.74;99427.50;7310529;19;129323;-39
2023/04/16 06:43:32;;;;;;;73.13;4.07;;;;;;;21.94;57.86;99433.50;7307528;19;130375;-39
2023/04/16 06:45:58;;;;;;;34.53;2.22;;;;;;;21.95;57.35;99435.16;7311684;19;128933;-38
2023/04/16 06:48:24;;;;;;;43.70;2.83;;;;;;;22.02;57.62;99434.56;7306360;19;128925;-39
2023/04/16 06:50:49;;;;;;;48.13;3.13;;;;;;;22.03;57.02;99420.50;7309980;19;129822;-39
2023/04/16 06:53:15;;;;;;;71.90;4.57;;;;;;;22.24;56.53;99434.16;7305854;19;130530;-39
2023/04/16 06:55:40;;;;;;;38.63;2.50;;;;;;;22.37;56.49;99434.63;7307197;19;129497;-39
2023/04/16 06:58:06;;;;;;;67.85;4.35;;;;;;;22.54;55.86;99431.22;7308455;19;128978;-39
2023/04/16 07:00:31;;;;;;;67.47;3.90;;;;;;;22.55;55.95;99435.47;7309332;19;131502;-39
2023/04/16 07:02:58;;;;;;;121.22;7.45;;;;;;;22.55;55.80;99438.09;7302494;19;131432;-39
2023/04/16 07:05:24;;;;;;;124.75;7.88;;;;;;;22.50;55.45;99424.59;7287936;19;130401;-39
2023/04/16 07:07:49;;;;;;;71.60;4.50;;;;;;;22.51;56.24;99432.31;7291994;19;131021;-38
2023/04/16 07:10:15;;;;;;;80.33;4.90;;;;;;;22.47;56.02;99424.91;7307741;19;130938;-38
2023/04/16 07:12:40;;;;;;;87.45;5.32;;;;;;;22.39;55.92;99430.06;7308461;19;130426;-41
2023/04/16 07:15:06;;;;;;;29.07;2.20;;;;;;;22.31;56.21;99436.06;7309243;19;129251;-38
2023/04/16 07:17:31;;;;;;;53.07;3.00;;;;;;;22.24;56.74;99442.03;7306725;19;129051;-38
2023/04/16 07:19:57;;;;;;;54.03;3.28;;;;;;;22.09;56.76;99425.16;7308931;19;130594;-40
2023/04/16 07:22:22;;;;;;;41.67;2.73;;;;;;;22.11;57.49;99444.16;7309655;19;129251;-39
2023/04/16 07:24:47;;;;;;;47.80;3.13;;;;;;;22.04;57.10;99448.34;7309868;19;129370;-39
2023/04/16 07:27:13;;;;;;;43.90;2.93;;;;;;;21.98;57.69;99455.00;7306345;19;130971;-40
2023/04/16 07:29:38;;;;;;;59.35;3.40;;;;;;;21.93;57.89;99447.56;7309072;19;130330;-39
2023/04/16 07:32:04;;;;;;;30.60;2.00;;;;;;;21.95;57.90;99445.63;7311026;19;131391;-39
2023/04/16 07:34:29;;;;;;;34.25;2.22;;;;;;;21.93;57.87;99449.38;7308533;19;129434;-41
2023/04/16 07:36:55;;;;;;;47.63;2.92;;;;;;;22.02;57.61;99450.25;7305606;19;130767;-37
2023/04/16 07:39:21;;;;;;;40.80;2.45;;;;;;;22.15;56.90;99458.63;7309787;19;130218;-39
2023/04/16 07:41:46;;;;;;;46.77;3.03;;;;;;;22.24;57.16;99461.19;7305279;19;129582;-41
2023/04/16 07:44:12;;;;;;;27.90;1.87;;;;;;;22.37;56.44;99458.19;7311142;19;129187;-42
2023/04/16 07:46:37;;;;;;;33.33;2.25;;;;;;;22.47;56.05;99461.56;7315181;19;129554;-38
2023/04/16 07:49:02;;;;;;;93.72;5.32;;;;;;;22.62;56.05;99465.38;7310016;19;129312;-39
2023/04/16 07:51:28;;;;;;;68.80;4.95;;;;;;;22.51;53.74;99461.13;7311881;19;129642;-42
2023/04/16 07:53:53;;;;;;;75.45;5.65;;;;;;;22.47;53.84;99456.34;7306524;19;131168;-40
2023/04/16 07:56:18;;;;;;;49.23;3.50;;;;;;;22.52;54.63;99464.56;7314999;19;128998;-38
2023/04/16 07:58:44;;;;;;;65.80;4.20;;;;;;;22.52;54.92;99469.81;7313101;19;130086;-38
2023/04/16 08:01:09;;;;;;;46.03;2.70;;;;;;;22.48;55.06;99474.53;7314000;19;130042;-38
2023/04/16 08:03:34;;;;;;;33.93;2.73;;;;;;;22.42;55.32;99474.28;7313497;19;129104;-39
2023/04/16 08:06:00;;;;;;;68.78;4.28;;;;;;;22.35;55.71;99470.59;7314382;19;129338;-38
2023/04/16 08:08:25;;;;;;;39.33;2.73;;;;;;;22.14;55.68;99459.56;7313628;19;130225;-37
2023/04/16 08:10:54;;;;;;;61.17;4.57;;;;;;;22.15;55.29;99469.09;7313627;19;129305;-41
2023/04/16 08:13:22;;;;;;;60.35;4.35;;;;;;;22.13;56.38;99477.06;7313128;19;129247;-39
2023/04/16 08:15:48;;;;;;;57.55;3.67;;;;;;;22.07;56.49;99487.31;7312365;19;130437;-38
2023/04/16 08:18:14;;;;;;;36.95;2.95;;;;;;;22.04;56.32;99479.75;7312220;19;129155;-39
2023/04/16 08:20:40;;;;;;;34.88;2.80;;;;;;;21.98;56.83;99478.56;7311573;19;131679;-38
2023/04/16 08:23:05;;;;;;;70.68;4.50;;;;;;;21.95;57.13;99482.25;7310616;19;129515;-40
2023/04/16 08:25:31;;;;;;;56.97;3.72;;;;;;;21.93;57.14;99483.41;7315573;19;129654;-38
2023/04/16 08:27:56;;;;;;;55.13;4.03;;;;;;;21.98;56.79;99484.59;7310886;19;130033;-42
2023/04/16 08:30:22;;;;;;;75.25;4.40;;;;;;;22.04;56.79;99491.06;7312110;19;130517;-39
2023/04/16 08:32:47;;;;;;;52.65;3.60;;;;;;;22.15;56.42;99495.28;7313493;19;129911;-37
2023/04/16 08:35:12;;;;;;;82.25;5.30;;;;;;;22.30;56.19;99493.78;7313949;19;129052;-37
2023/04/16 08:37:38;;;;;;;35.38;2.63;;;;;;;22.36;56.28;99495.84;7314832;19;129586;-39
2023/04/16 08:40:04;;;;;;;39.78;2.88;;;;;;;22.48;55.50;99507.75;7314698;19;129439;-39
2023/04/16 08:42:32;;;;;;;36.33;2.55;;;;;;;22.53;55.51;99505.53;7316312;19;129628;-37
2023/04/16 08:45:03;;;;;;;59.22;4.00;;;;;;;22.48;55.33;99497.28;7312373;19;129247;-39
2023/04/16 08:47:33;;;;;;;33.65;2.58;;;;;;;22.54;55.36;99509.84;7315018;19;129920;-38
2023/04/16 08:49:59;;;;;;;32.63;2.67;;;;;;;22.47;55.39;99508.72;7314363;19;129560;-40
2023/04/16 08:52:29;;;;;;;29.58;2.45;;;;;;;22.44;56.06;99506.41;7315724;19;129194;-37
2023/04/16 08:55:15;;;;;;;65.97;4.07;;;;;;;22.33;56.36;99504.00;7311931;19;129031;-39
2023/04/16 08:57:53;;;;;;;50.83;3.60;;;;;;;22.28;56.70;99508.84;7314205;19;130209;-38
2023/04/16 09:00:18;;;;;;;;;;;;;;;22.22;56.60;99514.66;7315818;19;129872;-38
2023/04/16 09:02:44;;;;;;;39.28;2.70;;;;;;;22.17;56.35;99511.66;7314240;19;128984;-39
2023/04/16 09:05:15;;;;;;;50.42;3.65;;;;;;;22.11;56.88;99513.06;7313103;19;129016;-38
2023/04/16 09:07:42;;;;;;;41.95;2.78;;;;;;;22.02;56.81;99510.47;7314189;19;130082;-39
2023/04/16 09:10:09;;;;;;;51.22;3.40;;;;;;;21.98;57.13;99513.38;7315321;19;130544;-39
2023/04/16 09:12:35;;;;;;;4.82;1.08;;;;;;;21.96;56.82;99524.97;7315235;19;129564;-38
2023/04/16 09:15:02;;;;;;;33.13;2.53;;;;;;;21.84;57.46;99505.19;7314915;19;129111;-37
2023/04/16 09:17:27;;;;;;;60.90;3.95;;;;;;;21.90;57.35;99520.31;7314107;19;129975;-40
2023/04/16 09:19:53;;;;;;;29.23;2.35;;;;;;;21.84;57.44;99521.72;7314682;19;129674;-38
2023/04/16 09:22:19;;;;;;;54.03;3.70;;;;;;;21.85;57.65;99522.53;7313947;19;130370;-37
2023/04/16 09:24:45;;;;;;;43.40;3.27;;;;;;;21.84;57.45;99521.72;7314315;19;130050;-37
2023/04/16 09:27:11;;;;;;;47.60;3.03;;;;;;;21.89;57.51;99529.97;7313571;19;130450;-41
2023/04/16 09:29:41;;;;;;;64.10;3.92;;;;;;;21.94;57.31;99532.97;7315411;19;130921;-39
2023/04/16 09:32:09;;;;;;;40.28;2.97;;;;;;;22.09;57.65;99533.34;7314587;19;129300;-38
2023/04/16 09:34:56;;;;;;;51.33;3.38;;;;;;;22.20;56.78;99532.31;7314267;19;129263;-38
2023/04/16 09:37:22;;;;;;;46.40;3.50;;;;;;;22.26;56.48;99521.28;7310182;19;130435;-36
2023/04/16 09:40:02;;;;;;;57.47;3.53;;;;;;;22.36;56.59;99522.03;7314023;19;130646;-37
2023/04/16 09:42:35;;;;;;;53.70;3.55;;;;;;;22.45;55.98;99539.50;7314307;19;130178;-37
2023/04/16 09:45:00;;;;;;;43.65;2.72;;;;;;;22.44;55.95;99535.22;7314134;19;129645;-38
2023/04/16 09:47:39;;;;;;;49.47;3.47;;;;;;;22.42;56.52;99539.78;7311891;19;129401;-37
2023/04/16 09:50:07;;;;;;;11.65;1.15;;;;;;;22.28;56.60;99529.81;7314169;19;130604;-38
2023/04/16 09:52:36;;;;;;;25.10;2.10;;;;;;;22.32;56.52;99546.88;7311709;19;128848;-36
2023/04/16 09:55:02;;;;;;;61.78;3.83;;;;;;;22.14;56.70;99532.88;7312658;19;128748;-38
2023/04/16 09:57:28;;;;;;;57.45;3.85;;;;;;;22.20;56.86;99553.25;7310397;19;130184;-38
2023/04/16 10:00:00;;;;;;;49.67;3.10;;;;;;;22.14;56.78;99553.84;7313151;19;130126;-38
2023/04/16 10:02:29;;;;;;;24.35;2.10;;;;;;;22.07;57.15;99552.75;7312521;19;129020;-38
2023/04/16 10:04:56;;;;;;;46.53;3.03;;;;;;;22.05;57.58;99555.53;7313046;19;129276;-38
2023/04/16 10:07:22;;;;;;;40.92;2.80;;;;;;;21.97;57.19;99552.78;7309695;19;130984;-39
2023/04/16 10:09:48;;;;;;;41.72;2.83;;;;;;;21.94;57.77;99553.91;7313530;19;132041;-38
2023/04/16 10:12:14;;;;;;;28.03;2.03;;;;;;;21.92;58.00;99549.78;7313045;19;131277;-39
2023/04/16 10:14:40;;;;;;;48.63;3.10;;;;;;;21.87;57.62;99558.06;7311914;19;129213;-37
2023/04/16 10:17:09;;;;;;;42.30;2.87;;;;;;;21.84;57.95;99558.38;7311140;19;131403;-38
2023/04/16 10:19:34;;;;;;;26.92;2.40;;;;;;;21.82;57.75;99551.59;7312491;19;130202;-37
2023/04/16 10:22:01;;;;;;;38.23;2.73;;;;;;;21.83;57.83;99556.69;7312611;19;128885;-38
2023/04/16 10:24:31;;;;;;;37.90;2.65;;;;;;;21.82;57.90;99560.28;7312563;19;129584;-36
2023/04/16 10:26:57;;;;;;;53.45;3.50;;;;;;;21.82;57.51;99565.53;7310998;19;131039;-39
2023/04/16 10:29:23;;;;;;;29.97;1.93;;;;;;;21.82;58.39;99560.28;7310473;19;129240;-39
2023/04/16 10:31:49;;;;;;;38.07;2.73;;;;;;;21.75;58.18;99547.88;7312478;19;129207;-39
2023/04/16 10:34:15;;;;;;;27.35;2.05;;;;;;;21.92;57.92;99563.69;7311831;19;129433;-37
2023/04/16 10:36:41;;;;;;;57.87;3.63;;;;;;;21.98;58.10;99560.50;7311732;19;130119;-39
2023/04/16 10:39:11;;;;;;;36.47;2.37;;;;;;;22.11;57.11;99564.59;7310343;19;129129;-40
2023/04/16 10:41:37;;;;;;;32.05;2.35;;;;;;;22.23;57.01;99559.03;7311791;19;129156;-39
2023/04/16 10:44:05;;;;;;;30.77;2.22;;;;;;;22.28;56.36;99561.25;7311660;19;129320;-38
2023/04/16 10:46:32;;;;;;;45.03;2.70;;;;;;;22.33;56.33;99559.00;7311496;19;131085;-41
2023/04/16 10:49:18;;;;;;;44.00;3.00;;;;;;;22.32;56.32;99567.81;7308883;19;129340;-37
2023/04/16 10:52:17;;;;;;;37.35;2.65;;;;;;;22.32;56.62;99575.69;7311314;19;129030;-37
2023/04/16 10:54:42;;;;;;;34.97;2.55;;;;;;;22.26;56.49;99573.66;7312106;19;128893;-38
2023/04/16 10:57:13;;;;;;;31.67;2.10;;;;;;;22.19;57.30;99567.31;7310310;19;130407;-37
2023/04/16 10:59:41;;;;;;;34.15;2.38;;;;;;;22.15;57.19;99571.22;7310127;19;129198;-40
2023/04/16 11:02:13;;;;;;;22.63;1.90;;;;;;;22.09;57.38;99571.78;7310550;19;129663;-39
2023/04/16 11:04:42;;;;;;;56.95;3.38;;;;;;;21.94;57.63;99567.00;7310784;19;128878;-39
2023/04/16 11:07:13;;;;;;;42.15;2.67;;;;;;;22.01;57.72;99569.88;7311309;19;130091;-39
2023/04/16 11:09:46;;;;;;;22.50;1.70;;;;;;;21.95;58.01;99581.75;7310495;19;131100;-42
2023/04/16 11:12:18;;;;;;;38.90;2.83;;;;;;;21.91;58.13;99580.34;7310352;19;129518;-38